sensor_id;sensor_type;location;lat;lon;timestamp;P1;durP1;ratioP1;P2;durP2;ratioP2
74538;SDS011;66042;51.090;-115.340;2023-02-20T00:01:35;11.10;;;0.60;;
74538;SDS011;66042;51.090;-115.340;2023-02-20T00:04:02;1.60;;;0.30;;
74538;SDS011;66042;51.090;-115.340;2023-02-20T00:06:29;0.60;;;0.30;;
74538;SDS011;66042;51.090;-115.340;2023-02-20T00:08:56;0.70;;;0.30;;
74538;SDS011;66042;51.090;-115.340;2023-02-20T00:11:24;1.40;;;0.40;;
74538;SDS011;66042;51.090;-115.340;2023-02-20T00:13:51;1.20;;;0.50;;
74538;SDS011;66042;51.090;-115.340;2023-02-20T00:16:18;1.90;;;0.40;;
74538;SDS011;66042;51.090;-115.340;2023-02-20T00:18:45;1.10;;;0.40;;
74538;SDS011;66042;51.090;-115.340;2023-02-20T00:21:12;4.00;;;0.70;;
74538;SDS011;66042;51.090;-115.340;2023-02-20T00:23:39;1.40;;;0.50;;
74538;SDS011;66042;51.090;-115.340;2023-02-20T00:26:10;3.00;;;0.30;;
74538;SDS011;66042;51.090;-115.340;2023-02-20T00:28:39;1.10;;;0.40;;
74538;SDS011;66042;51.090;-115.340;2023-02-20T00:31:11;1.60;;;0.40;;
74538;SDS011;66042;51.090;-115.340;2023-02-20T00:33:41;2.00;;;0.40;;
74538;SDS011;66042;51.090;-115.340;2023-02-20T00:36:14;3.10;;;0.40;;
74538;SDS011;66042;51.090;-115.340;2023-02-20T00:38:43;1.20;;;0.50;;
74538;SDS011;66042;51.090;-115.340;2023-02-20T00:41:12;5.30;;;0.40;;
74538;SDS011;66042;51.090;-115.340;2023-02-20T00:43:40;4.10;;;0.50;;
74538;SDS011;66042;51.090;-115.340;2023-02-20T00:46:11;1.20;;;0.50;;
74538;SDS011;66042;51.090;-115.340;2023-02-20T00:48:39;1.40;;;0.40;;
74538;SDS011;66042;51.090;-115.340;2023-02-20T00:51:06;1.70;;;0.30;;
74538;SDS011;66042;51.090;-115.340;2023-02-20T00:53:33;1.60;;;0.50;;
74538;SDS011;66042;51.090;-115.340;2023-02-20T00:56:01;1.50;;;0.40;;
74538;SDS011;66042;51.090;-115.340;2023-02-20T00:58:28;0.90;;;0.40;;
74538;SDS011;66042;51.090;-115.340;2023-02-20T01:00:56;1.10;;;0.50;;
74538;SDS011;66042;51.090;-115.340;2023-02-20T01:03:22;0.70;;;0.50;;
74538;SDS011;66042;51.090;-115.340;2023-02-20T01:05:49;0.70;;;0.40;;
74538;SDS011;66042;51.090;-115.340;2023-02-20T01:08:16;2.20;;;0.40;;
74538;SDS011;66042;51.090;-115.340;2023-02-20T01:10:43;1.40;;;0.40;;
74538;SDS011;66042;51.090;-115.340;2023-02-20T01:13:10;2.00;;;0.30;;
74538;SDS011;66042;51.090;-115.340;2023-02-20T01:15:37;2.30;;;0.40;;
74538;SDS011;66042;51.090;-115.340;2023-02-20T01:18:04;4.70;;;0.40;;
74538;SDS011;66042;51.090;-115.340;2023-02-20T01:20:32;0.90;;;0.30;;
74538;SDS011;66042;51.090;-115.340;2023-02-20T01:22:59;1.50;;;0.50;;
74538;SDS011;66042;51.090;-115.340;2023-02-20T01:25:26;0.80;;;0.30;;
74538;SDS011;66042;51.090;-115.340;2023-02-20T01:27:53;3.00;;;0.50;;
74538;SDS011;66042;51.090;-115.340;2023-02-20T01:30:20;1.40;;;0.30;;
74538;SDS011;66042;51.090;-115.340;2023-02-20T01:32:47;3.10;;;0.40;;
74538;SDS011;66042;51.090;-115.340;2023-02-20T01:35:15;2.90;;;0.50;;
74538;SDS011;66042;51.090;-115.340;2023-02-20T01:37:42;0.80;;;0.40;;
74538;SDS011;66042;51.090;-115.340;2023-02-20T01:40:20;0.90;;;0.30;;
74538;SDS011;66042;51.090;-115.340;2023-02-20T01:42:49;2.40;;;0.50;;
74538;SDS011;66042;51.090;-115.340;2023-02-20T01:47:51;2.10;;;0.50;;
74538;SDS011;66042;51.090;-115.340;2023-02-20T01:50:28;2.30;;;0.40;;
74538;SDS011;66042;51.090;-115.340;2023-02-20T01:53:03;0.90;;;0.40;;
74538;SDS011;66042;51.090;-115.340;2023-02-20T01:55:44;1.60;;;0.20;;
74538;SDS011;66042;51.090;-115.340;2023-02-20T01:58:22;2.10;;;0.50;;
74538;SDS011;66042;51.090;-115.340;2023-02-20T02:00:55;2.00;;;0.50;;
74538;SDS011;66042;51.090;-115.340;2023-02-20T02:03:27;1.40;;;0.60;;
74538;SDS011;66042;51.090;-115.340;2023-02-20T02:06:02;4.60;;;0.40;;
74538;SDS011;66042;51.090;-115.340;2023-02-20T02:08:34;0.80;;;0.40;;
74538;SDS011;66042;51.090;-115.340;2023-02-20T02:11:09;1.10;;;0.40;;
74538;SDS011;66042;51.090;-115.340;2023-02-20T02:13:43;4.80;;;0.70;;
74538;SDS011;66042;51.090;-115.340;2023-02-20T02:25:36;1.00;;;0.50;;
74538;SDS011;66042;51.090;-115.340;2023-02-20T02:30:54;1.00;;;0.60;;
74538;SDS011;66042;51.090;-115.340;2023-02-20T02:40:09;2.40;;;0.50;;
74538;SDS011;66042;51.090;-115.340;2023-02-20T02:46:01;2.70;;;0.60;;
74538;SDS011;66042;51.090;-115.340;2023-02-20T02:48:53;1.70;;;0.40;;
74538;SDS011;66042;51.090;-115.340;2023-02-20T02:51:31;0.90;;;0.40;;
74538;SDS011;66042;51.090;-115.340;2023-02-20T02:54:08;1.10;;;0.40;;
74538;SDS011;66042;51.090;-115.340;2023-02-20T02:56:40;2.50;;;0.80;;
74538;SDS011;66042;51.090;-115.340;2023-02-20T02:59:17;3.40;;;0.60;;
74538;SDS011;66042;51.090;-115.340;2023-02-20T03:01:56;1.60;;;0.50;;
74538;SDS011;66042;51.090;-115.340;2023-02-20T03:04:27;1.10;;;0.50;;
74538;SDS011;66042;51.090;-115.340;2023-02-20T03:07:00;1.00;;;0.60;;
74538;SDS011;66042;51.090;-115.340;2023-02-20T03:09:38;2.20;;;0.50;;
74538;SDS011;66042;51.090;-115.340;2023-02-20T03:12:12;1.00;;;0.50;;
74538;SDS011;66042;51.090;-115.340;2023-02-20T03:14:53;3.00;;;0.50;;
74538;SDS011;66042;51.090;-115.340;2023-02-20T03:20:44;0.80;;;0.30;;
74538;SDS011;66042;51.090;-115.340;2023-02-20T03:23:24;4.00;;;0.40;;
74538;SDS011;66042;51.090;-115.340;2023-02-20T03:26:17;1.10;;;0.40;;
74538;SDS011;66042;51.090;-115.340;2023-02-20T03:28:58;2.50;;;0.30;;
74538;SDS011;66042;51.090;-115.340;2023-02-20T03:31:34;3.70;;;0.60;;
74538;SDS011;66042;51.090;-115.340;2023-02-20T03:34:21;5.40;;;1.80;;
74538;SDS011;66042;51.090;-115.340;2023-02-20T03:37:19;1.30;;;0.50;;
74538;SDS011;66042;51.090;-115.340;2023-02-20T03:40:09;1.40;;;0.70;;
74538;SDS011;66042;51.090;-115.340;2023-02-20T03:43:03;7.20;;;2.40;;
74538;SDS011;66042;51.090;-115.340;2023-02-20T03:45:59;5.90;;;2.50;;
74538;SDS011;66042;51.090;-115.340;2023-02-20T03:48:59;1.20;;;0.50;;
74538;SDS011;66042;51.090;-115.340;2023-02-20T03:51:31;2.40;;;0.60;;
74538;SDS011;66042;51.090;-115.340;2023-02-20T03:53:59;1.20;;;0.50;;
74538;SDS011;66042;51.090;-115.340;2023-02-20T03:56:30;5.30;;;0.30;;
74538;SDS011;66042;51.090;-115.340;2023-02-20T03:59:17;0.90;;;0.50;;
74538;SDS011;66042;51.090;-115.340;2023-02-20T04:01:51;1.00;;;0.40;;
74538;SDS011;66042;51.090;-115.340;2023-02-20T04:04:27;1.90;;;0.50;;
74538;SDS011;66042;51.090;-115.340;2023-02-20T04:07:02;1.30;;;0.40;;
74538;SDS011;66042;51.090;-115.340;2023-02-20T04:09:37;5.10;;;0.60;;
74538;SDS011;66042;51.090;-115.340;2023-02-20T04:12:16;1.20;;;0.50;;
74538;SDS011;66042;51.090;-115.340;2023-02-20T04:14:51;2.10;;;0.50;;
74538;SDS011;66042;51.090;-115.340;2023-02-20T04:17:25;5.60;;;0.60;;
74538;SDS011;66042;51.090;-115.340;2023-02-20T04:19:55;2.80;;;0.50;;
74538;SDS011;66042;51.090;-115.340;2023-02-20T04:22:27;1.20;;;0.50;;
74538;SDS011;66042;51.090;-115.340;2023-02-20T04:25:00;2.40;;;0.40;;
74538;SDS011;66042;51.090;-115.340;2023-02-20T04:27:41;1.00;;;0.30;;
74538;SDS011;66042;51.090;-115.340;2023-02-20T04:30:08;3.70;;;1.40;;
74538;SDS011;66042;51.090;-115.340;2023-02-20T04:32:36;7.30;;;2.70;;
74538;SDS011;66042;51.090;-115.340;2023-02-20T04:35:03;8.00;;;2.90;;
74538;SDS011;66042;51.090;-115.340;2023-02-20T04:37:30;10.10;;;3.50;;
74538;SDS011;66042;51.090;-115.340;2023-02-20T04:39:57;12.80;;;5.20;;
74538;SDS011;66042;51.090;-115.340;2023-02-20T04:42:24;17.30;;;6.60;;
74538;SDS011;66042;51.090;-115.340;2023-02-20T04:44:51;16.70;;;5.50;;
74538;SDS011;66042;51.090;-115.340;2023-02-20T04:47:18;10.90;;;3.40;;
74538;SDS011;66042;51.090;-115.340;2023-02-20T04:49:45;18.80;;;4.70;;
74538;SDS011;66042;51.090;-115.340;2023-02-20T04:52:12;16.00;;;4.80;;
74538;SDS011;66042;51.090;-115.340;2023-02-20T04:54:39;15.00;;;4.80;;
74538;SDS011;66042;51.090;-115.340;2023-02-20T04:57:06;15.90;;;4.30;;
74538;SDS011;66042;51.090;-115.340;2023-02-20T04:59:33;14.90;;;4.50;;
74538;SDS011;66042;51.090;-115.340;2023-02-20T05:02:00;14.30;;;4.10;;
74538;SDS011;66042;51.090;-115.340;2023-02-20T05:04:27;20.00;;;6.20;;
74538;SDS011;66042;51.090;-115.340;2023-02-20T05:06:55;19.10;;;4.80;;
74538;SDS011;66042;51.090;-115.340;2023-02-20T05:09:23;17.60;;;5.40;;
74538;SDS011;66042;51.090;-115.340;2023-02-20T05:11:50;17.30;;;5.40;;
74538;SDS011;66042;51.090;-115.340;2023-02-20T05:14:18;14.50;;;5.40;;
74538;SDS011;66042;51.090;-115.340;2023-02-20T05:16:47;14.40;;;4.60;;
74538;SDS011;66042;51.090;-115.340;2023-02-20T05:19:16;17.00;;;5.60;;
74538;SDS011;66042;51.090;-115.340;2023-02-20T05:21:44;14.40;;;5.00;;
74538;SDS011;66042;51.090;-115.340;2023-02-20T05:24:30;12.60;;;4.60;;
74538;SDS011;66042;51.090;-115.340;2023-02-20T05:26:58;17.20;;;4.70;;
74538;SDS011;66042;51.090;-115.340;2023-02-20T05:29:27;11.50;;;4.10;;
74538;SDS011;66042;51.090;-115.340;2023-02-20T05:31:54;14.40;;;4.60;;
74538;SDS011;66042;51.090;-115.340;2023-02-20T05:34:21;12.90;;;4.60;;
74538;SDS011;66042;51.090;-115.340;2023-02-20T05:36:51;13.90;;;4.60;;
74538;SDS011;66042;51.090;-115.340;2023-02-20T05:39:18;13.80;;;5.60;;
74538;SDS011;66042;51.090;-115.340;2023-02-20T05:41:46;16.50;;;5.20;;
74538;SDS011;66042;51.090;-115.340;2023-02-20T05:44:14;15.30;;;4.70;;
74538;SDS011;66042;51.090;-115.340;2023-02-20T05:46:42;12.70;;;4.80;;
74538;SDS011;66042;51.090;-115.340;2023-02-20T05:49:09;20.30;;;6.30;;
74538;SDS011;66042;51.090;-115.340;2023-02-20T05:51:37;18.50;;;5.10;;
74538;SDS011;66042;51.090;-115.340;2023-02-20T05:54:05;20.90;;;7.20;;
74538;SDS011;66042;51.090;-115.340;2023-02-20T05:56:32;13.90;;;5.50;;
74538;SDS011;66042;51.090;-115.340;2023-02-20T05:59:00;7.50;;;2.50;;
74538;SDS011;66042;51.090;-115.340;2023-02-20T06:01:31;7.80;;;2.50;;
74538;SDS011;66042;51.090;-115.340;2023-02-20T06:03:58;5.50;;;1.80;;
74538;SDS011;66042;51.090;-115.340;2023-02-20T06:06:38;8.20;;;2.50;;
74538;SDS011;66042;51.090;-115.340;2023-02-20T06:09:08;6.60;;;2.60;;
74538;SDS011;66042;51.090;-115.340;2023-02-20T06:11:37;6.20;;;1.90;;
74538;SDS011;66042;51.090;-115.340;2023-02-20T06:14:05;5.30;;;1.90;;
74538;SDS011;66042;51.090;-115.340;2023-02-20T06:16:34;4.60;;;1.40;;
74538;SDS011;66042;51.090;-115.340;2023-02-20T06:19:01;3.90;;;1.40;;
74538;SDS011;66042;51.090;-115.340;2023-02-20T06:21:30;3.20;;;1.30;;
74538;SDS011;66042;51.090;-115.340;2023-02-20T06:24:01;3.90;;;1.50;;
74538;SDS011;66042;51.090;-115.340;2023-02-20T06:26:29;6.30;;;2.60;;
74538;SDS011;66042;51.090;-115.340;2023-02-20T06:28:56;6.50;;;1.70;;
74538;SDS011;66042;51.090;-115.340;2023-02-20T06:31:24;3.80;;;1.40;;
74538;SDS011;66042;51.090;-115.340;2023-02-20T06:33:54;8.00;;;1.80;;
74538;SDS011;66042;51.090;-115.340;2023-02-20T06:36:26;7.10;;;1.80;;
74538;SDS011;66042;51.090;-115.340;2023-02-20T06:38:58;3.40;;;1.00;;
74538;SDS011;66042;51.090;-115.340;2023-02-20T06:41:25;2.00;;;0.80;;
74538;SDS011;66042;51.090;-115.340;2023-02-20T06:43:53;2.90;;;1.30;;
74538;SDS011;66042;51.090;-115.340;2023-02-20T06:46:20;1.70;;;1.10;;
74538;SDS011;66042;51.090;-115.340;2023-02-20T06:48:52;4.50;;;1.70;;
74538;SDS011;66042;51.090;-115.340;2023-02-20T06:51:24;4.20;;;1.00;;
74538;SDS011;66042;51.090;-115.340;2023-02-20T06:53:56;4.50;;;1.10;;
74538;SDS011;66042;51.090;-115.340;2023-02-20T06:56:27;3.20;;;1.30;;
74538;SDS011;66042;51.090;-115.340;2023-02-20T06:58:56;5.80;;;1.20;;
74538;SDS011;66042;51.090;-115.340;2023-02-20T07:01:26;4.40;;;1.60;;
74538;SDS011;66042;51.090;-115.340;2023-02-20T07:03:57;3.00;;;1.50;;
74538;SDS011;66042;51.090;-115.340;2023-02-20T07:06:25;5.90;;;1.70;;
74538;SDS011;66042;51.090;-115.340;2023-02-20T07:08:52;5.20;;;1.70;;
74538;SDS011;66042;51.090;-115.340;2023-02-20T07:11:20;5.40;;;1.60;;
74538;SDS011;66042;51.090;-115.340;2023-02-20T07:13:49;4.70;;;1.60;;
74538;SDS011;66042;51.090;-115.340;2023-02-20T07:16:17;6.70;;;2.20;;
74538;SDS011;66042;51.090;-115.340;2023-02-20T07:18:44;4.30;;;1.60;;
74538;SDS011;66042;51.090;-115.340;2023-02-20T07:21:11;6.80;;;1.60;;
74538;SDS011;66042;51.090;-115.340;2023-02-20T07:23:38;6.40;;;2.00;;
74538;SDS011;66042;51.090;-115.340;2023-02-20T07:26:05;5.90;;;2.00;;
74538;SDS011;66042;51.090;-115.340;2023-02-20T07:28:35;7.40;;;2.40;;
74538;SDS011;66042;51.090;-115.340;2023-02-20T07:31:02;4.40;;;1.10;;
74538;SDS011;66042;51.090;-115.340;2023-02-20T07:33:29;7.40;;;1.60;;
74538;SDS011;66042;51.090;-115.340;2023-02-20T07:35:56;5.70;;;1.40;;
74538;SDS011;66042;51.090;-115.340;2023-02-20T07:38:24;6.70;;;1.80;;
74538;SDS011;66042;51.090;-115.340;2023-02-20T07:40:51;5.30;;;1.60;;
74538;SDS011;66042;51.090;-115.340;2023-02-20T07:43:18;5.10;;;1.90;;
74538;SDS011;66042;51.090;-115.340;2023-02-20T07:45:45;4.80;;;1.70;;
74538;SDS011;66042;51.090;-115.340;2023-02-20T07:48:11;4.70;;;1.80;;
74538;SDS011;66042;51.090;-115.340;2023-02-20T07:50:38;8.00;;;2.40;;
74538;SDS011;66042;51.090;-115.340;2023-02-20T07:53:05;4.60;;;1.10;;
74538;SDS011;66042;51.090;-115.340;2023-02-20T07:55:32;4.90;;;1.50;;
74538;SDS011;66042;51.090;-115.340;2023-02-20T07:57:59;5.90;;;1.70;;
74538;SDS011;66042;51.090;-115.340;2023-02-20T08:00:27;4.10;;;1.10;;
74538;SDS011;66042;51.090;-115.340;2023-02-20T08:02:53;5.80;;;1.50;;
74538;SDS011;66042;51.090;-115.340;2023-02-20T08:05:21;2.80;;;1.00;;
74538;SDS011;66042;51.090;-115.340;2023-02-20T08:07:48;3.70;;;1.30;;
74538;SDS011;66042;51.090;-115.340;2023-02-20T08:10:19;3.30;;;1.10;;
74538;SDS011;66042;51.090;-115.340;2023-02-20T08:12:48;3.40;;;1.10;;
74538;SDS011;66042;51.090;-115.340;2023-02-20T08:15:21;4.70;;;1.20;;
74538;SDS011;66042;51.090;-115.340;2023-02-20T08:17:48;5.30;;;1.30;;
74538;SDS011;66042;51.090;-115.340;2023-02-20T08:20:17;4.40;;;1.00;;
74538;SDS011;66042;51.090;-115.340;2023-02-20T08:22:46;3.10;;;1.10;;
74538;SDS011;66042;51.090;-115.340;2023-02-20T08:25:15;3.70;;;1.20;;
74538;SDS011;66042;51.090;-115.340;2023-02-20T08:27:45;2.60;;;0.80;;
74538;SDS011;66042;51.090;-115.340;2023-02-20T08:30:19;6.20;;;1.30;;
74538;SDS011;66042;51.090;-115.340;2023-02-20T08:32:49;3.60;;;1.30;;
74538;SDS011;66042;51.090;-115.340;2023-02-20T08:35:17;2.80;;;0.80;;
74538;SDS011;66042;51.090;-115.340;2023-02-20T08:37:45;3.70;;;0.90;;
74538;SDS011;66042;51.090;-115.340;2023-02-20T08:40:12;3.10;;;1.10;;
74538;SDS011;66042;51.090;-115.340;2023-02-20T08:42:40;3.90;;;1.50;;
74538;SDS011;66042;51.090;-115.340;2023-02-20T08:45:07;4.90;;;0.70;;
74538;SDS011;66042;51.090;-115.340;2023-02-20T08:47:35;2.90;;;0.60;;
74538;SDS011;66042;51.090;-115.340;2023-02-20T08:50:03;2.70;;;0.60;;
74538;SDS011;66042;51.090;-115.340;2023-02-20T08:52:30;2.80;;;1.40;;
74538;SDS011;66042;51.090;-115.340;2023-02-20T08:54:57;3.30;;;0.60;;
74538;SDS011;66042;51.090;-115.340;2023-02-20T08:57:24;1.80;;;0.40;;
74538;SDS011;66042;51.090;-115.340;2023-02-20T08:59:51;2.30;;;0.80;;
74538;SDS011;66042;51.090;-115.340;2023-02-20T09:02:21;3.10;;;1.00;;
74538;SDS011;66042;51.090;-115.340;2023-02-20T09:04:55;4.10;;;1.30;;
74538;SDS011;66042;51.090;-115.340;2023-02-20T09:07:23;4.10;;;1.40;;
74538;SDS011;66042;51.090;-115.340;2023-02-20T09:09:50;2.40;;;0.70;;
74538;SDS011;66042;51.090;-115.340;2023-02-20T09:12:18;3.10;;;1.20;;
74538;SDS011;66042;51.090;-115.340;2023-02-20T09:14:45;2.10;;;1.00;;
74538;SDS011;66042;51.090;-115.340;2023-02-20T09:17:12;3.60;;;1.00;;
74538;SDS011;66042;51.090;-115.340;2023-02-20T09:19:39;4.80;;;0.90;;
74538;SDS011;66042;51.090;-115.340;2023-02-20T09:22:06;3.90;;;1.30;;
74538;SDS011;66042;51.090;-115.340;2023-02-20T09:24:33;9.50;;;1.90;;
74538;SDS011;66042;51.090;-115.340;2023-02-20T09:27:02;4.70;;;1.00;;
74538;SDS011;66042;51.090;-115.340;2023-02-20T09:29:31;4.40;;;1.00;;
74538;SDS011;66042;51.090;-115.340;2023-02-20T09:31:58;3.10;;;0.90;;
74538;SDS011;66042;51.090;-115.340;2023-02-20T09:34:25;2.00;;;0.80;;
74538;SDS011;66042;51.090;-115.340;2023-02-20T09:36:52;6.60;;;1.50;;
74538;SDS011;66042;51.090;-115.340;2023-02-20T09:39:18;7.40;;;1.40;;
74538;SDS011;66042;51.090;-115.340;2023-02-20T09:45:13;4.70;;;1.20;;
74538;SDS011;66042;51.090;-115.340;2023-02-20T09:50:50;6.70;;;2.00;;
74538;SDS011;66042;51.090;-115.340;2023-02-20T09:53:37;6.10;;;1.90;;
74538;SDS011;66042;51.090;-115.340;2023-02-20T09:56:27;6.70;;;1.50;;
74538;SDS011;66042;51.090;-115.340;2023-02-20T10:01:41;4.90;;;1.10;;
74538;SDS011;66042;51.090;-115.340;2023-02-20T10:04:21;6.30;;;1.80;;
74538;SDS011;66042;51.090;-115.340;2023-02-20T10:07:27;6.30;;;2.00;;
74538;SDS011;66042;51.090;-115.340;2023-02-20T10:09:57;7.90;;;1.30;;
74538;SDS011;66042;51.090;-115.340;2023-02-20T10:12:37;6.60;;;1.50;;
74538;SDS011;66042;51.090;-115.340;2023-02-20T10:18:05;8.10;;;1.50;;
74538;SDS011;66042;51.090;-115.340;2023-02-20T10:23:52;6.80;;;1.30;;
74538;SDS011;66042;51.090;-115.340;2023-02-20T10:26:32;4.20;;;1.20;;
74538;SDS011;66042;51.090;-115.340;2023-02-20T10:29:30;4.40;;;0.80;;
74538;SDS011;66042;51.090;-115.340;2023-02-20T10:32:08;3.50;;;0.80;;
74538;SDS011;66042;51.090;-115.340;2023-02-20T10:35:02;4.10;;;1.20;;
74538;SDS011;66042;51.090;-115.340;2023-02-20T10:37:44;5.20;;;1.20;;
74538;SDS011;66042;51.090;-115.340;2023-02-20T10:40:48;4.20;;;1.00;;
74538;SDS011;66042;51.090;-115.340;2023-02-20T10:43:36;6.10;;;0.80;;
74538;SDS011;66042;51.090;-115.340;2023-02-20T10:49:06;4.00;;;0.90;;
74538;SDS011;66042;51.090;-115.340;2023-02-20T10:51:44;4.50;;;0.90;;
74538;SDS011;66042;51.090;-115.340;2023-02-20T10:54:49;4.00;;;1.00;;
74538;SDS011;66042;51.090;-115.340;2023-02-20T10:57:57;3.80;;;1.30;;
74538;SDS011;66042;51.090;-115.340;2023-02-20T11:00:44;3.30;;;1.20;;
74538;SDS011;66042;51.090;-115.340;2023-02-20T11:03:19;7.30;;;1.40;;
74538;SDS011;66042;51.090;-115.340;2023-02-20T11:05:56;10.40;;;1.90;;
74538;SDS011;66042;51.090;-115.340;2023-02-20T11:08:27;8.50;;;1.80;;
74538;SDS011;66042;51.090;-115.340;2023-02-20T11:10:59;5.90;;;2.20;;
74538;SDS011;66042;51.090;-115.340;2023-02-20T11:13:31;8.40;;;2.00;;
74538;SDS011;66042;51.090;-115.340;2023-02-20T11:15:59;9.70;;;2.50;;
74538;SDS011;66042;51.090;-115.340;2023-02-20T11:18:34;6.70;;;1.80;;
74538;SDS011;66042;51.090;-115.340;2023-02-20T11:21:03;6.40;;;1.70;;
74538;SDS011;66042;51.090;-115.340;2023-02-20T11:26:31;8.80;;;1.50;;
74538;SDS011;66042;51.090;-115.340;2023-02-20T11:29:15;3.20;;;1.20;;
74538;SDS011;66042;51.090;-115.340;2023-02-20T11:31:44;5.00;;;1.10;;
74538;SDS011;66042;51.090;-115.340;2023-02-20T11:34:24;2.20;;;0.60;;
74538;SDS011;66042;51.090;-115.340;2023-02-20T11:37:04;3.20;;;0.90;;
74538;SDS011;66042;51.090;-115.340;2023-02-20T11:39:32;3.50;;;1.20;;
74538;SDS011;66042;51.090;-115.340;2023-02-20T11:42:11;3.90;;;0.90;;
74538;SDS011;66042;51.090;-115.340;2023-02-20T11:44:43;3.00;;;0.80;;
74538;SDS011;66042;51.090;-115.340;2023-02-20T11:47:21;3.80;;;1.10;;
74538;SDS011;66042;51.090;-115.340;2023-02-20T11:50:09;2.40;;;0.60;;
74538;SDS011;66042;51.090;-115.340;2023-02-20T11:53:02;3.00;;;0.60;;
74538;SDS011;66042;51.090;-115.340;2023-02-20T11:55:31;1.90;;;0.60;;
74538;SDS011;66042;51.090;-115.340;2023-02-20T11:57:58;2.60;;;1.10;;
74538;SDS011;66042;51.090;-115.340;2023-02-20T12:00:28;2.40;;;0.80;;
74538;SDS011;66042;51.090;-115.340;2023-02-20T12:03:29;3.20;;;0.90;;
74538;SDS011;66042;51.090;-115.340;2023-02-20T12:09:19;1.00;;;0.60;;
74538;SDS011;66042;51.090;-115.340;2023-02-20T12:11:53;1.70;;;0.70;;
74538;SDS011;66042;51.090;-115.340;2023-02-20T12:14:22;3.00;;;0.70;;
74538;SDS011;66042;51.090;-115.340;2023-02-20T12:16:55;1.50;;;0.50;;
74538;SDS011;66042;51.090;-115.340;2023-02-20T12:22:35;3.30;;;1.10;;
74538;SDS011;66042;51.090;-115.340;2023-02-20T12:25:17;3.60;;;1.20;;
74538;SDS011;66042;51.090;-115.340;2023-02-20T12:28:08;3.50;;;1.10;;
74538;SDS011;66042;51.090;-115.340;2023-02-20T12:40:07;3.70;;;1.00;;
74538;SDS011;66042;51.090;-115.340;2023-02-20T12:48:27;5.40;;;1.50;;
74538;SDS011;66042;51.090;-115.340;2023-02-20T13:02:37;1.50;;;0.40;;
74538;SDS011;66042;51.090;-115.340;2023-02-20T13:05:12;1.30;;;0.70;;
74538;SDS011;66042;51.090;-115.340;2023-02-20T13:07:52;1.40;;;0.60;;
74538;SDS011;66042;51.090;-115.340;2023-02-20T13:10:31;1.30;;;0.50;;
74538;SDS011;66042;51.090;-115.340;2023-02-20T13:13:00;0.80;;;0.30;;
74538;SDS011;66042;51.090;-115.340;2023-02-20T13:18:47;0.90;;;0.50;;
74538;SDS011;66042;51.090;-115.340;2023-02-20T13:21:28;0.80;;;0.40;;
74538;SDS011;66042;51.090;-115.340;2023-02-20T13:24:26;0.70;;;0.30;;
74538;SDS011;66042;51.090;-115.340;2023-02-20T13:26:56;0.70;;;0.50;;
74538;SDS011;66042;51.090;-115.340;2023-02-20T13:29:33;0.70;;;0.40;;
74538;SDS011;66042;51.090;-115.340;2023-02-20T13:34:45;0.80;;;0.50;;
74538;SDS011;66042;51.090;-115.340;2023-02-20T13:45:45;4.40;;;1.10;;
74538;SDS011;66042;51.090;-115.340;2023-02-20T13:56:48;1.00;;;0.50;;
74538;SDS011;66042;51.090;-115.340;2023-02-20T13:59:21;1.70;;;0.60;;
74538;SDS011;66042;51.090;-115.340;2023-02-20T14:01:56;2.70;;;0.90;;
74538;SDS011;66042;51.090;-115.340;2023-02-20T14:04:39;3.90;;;1.60;;
74538;SDS011;66042;51.090;-115.340;2023-02-20T14:07:45;3.50;;;0.80;;
74538;SDS011;66042;51.090;-115.340;2023-02-20T14:10:22;2.70;;;1.00;;
74538;SDS011;66042;51.090;-115.340;2023-02-20T14:15:44;4.30;;;1.50;;
74538;SDS011;66042;51.090;-115.340;2023-02-20T14:18:24;7.10;;;1.70;;
74538;SDS011;66042;51.090;-115.340;2023-02-20T14:23:40;5.10;;;1.10;;
74538;SDS011;66042;51.090;-115.340;2023-02-20T14:26:30;6.10;;;2.20;;
74538;SDS011;66042;51.090;-115.340;2023-02-20T14:29:00;3.60;;;1.80;;
74538;SDS011;66042;51.090;-115.340;2023-02-20T14:31:34;6.10;;;2.10;;
74538;SDS011;66042;51.090;-115.340;2023-02-20T14:34:28;3.30;;;1.10;;
74538;SDS011;66042;51.090;-115.340;2023-02-20T14:40:11;4.00;;;1.50;;
74538;SDS011;66042;51.090;-115.340;2023-02-20T14:43:00;3.10;;;1.30;;
74538;SDS011;66042;51.090;-115.340;2023-02-20T14:45:28;5.20;;;1.50;;
74538;SDS011;66042;51.090;-115.340;2023-02-20T14:47:59;6.70;;;2.30;;
74538;SDS011;66042;51.090;-115.340;2023-02-20T14:53:13;6.60;;;1.80;;
74538;SDS011;66042;51.090;-115.340;2023-02-20T14:55:42;7.70;;;1.20;;
74538;SDS011;66042;51.090;-115.340;2023-02-20T14:58:15;6.80;;;1.60;;
74538;SDS011;66042;51.090;-115.340;2023-02-20T15:00:46;3.80;;;0.90;;
74538;SDS011;66042;51.090;-115.340;2023-02-20T15:03:32;3.30;;;0.90;;
74538;SDS011;66042;51.090;-115.340;2023-02-20T15:06:01;3.00;;;0.80;;
74538;SDS011;66042;51.090;-115.340;2023-02-20T15:08:38;2.50;;;1.00;;
74538;SDS011;66042;51.090;-115.340;2023-02-20T15:11:12;4.30;;;1.60;;
74538;SDS011;66042;51.090;-115.340;2023-02-20T15:13:43;4.60;;;1.20;;
74538;SDS011;66042;51.090;-115.340;2023-02-20T15:16:25;4.60;;;1.60;;
74538;SDS011;66042;51.090;-115.340;2023-02-20T15:18:54;4.10;;;1.40;;
74538;SDS011;66042;51.090;-115.340;2023-02-20T15:21:34;5.60;;;1.00;;
74538;SDS011;66042;51.090;-115.340;2023-02-20T15:26:52;6.40;;;2.00;;
74538;SDS011;66042;51.090;-115.340;2023-02-20T15:29:23;7.80;;;1.70;;
74538;SDS011;66042;51.090;-115.340;2023-02-20T15:31:59;3.20;;;1.10;;
74538;SDS011;66042;51.090;-115.340;2023-02-20T15:34:36;2.80;;;0.90;;
74538;SDS011;66042;51.090;-115.340;2023-02-20T15:39:52;3.60;;;1.10;;
74538;SDS011;66042;51.090;-115.340;2023-02-20T15:42:22;3.90;;;0.90;;
74538;SDS011;66042;51.090;-115.340;2023-02-20T15:44:50;3.30;;;1.20;;
74538;SDS011;66042;51.090;-115.340;2023-02-20T15:47:18;6.30;;;1.10;;
74538;SDS011;66042;51.090;-115.340;2023-02-20T15:49:45;4.30;;;1.20;;
74538;SDS011;66042;51.090;-115.340;2023-02-20T15:52:19;3.00;;;0.70;;
74538;SDS011;66042;51.090;-115.340;2023-02-20T15:54:54;3.60;;;1.10;;
74538;SDS011;66042;51.090;-115.340;2023-02-20T15:57:21;3.00;;;0.70;;
74538;SDS011;66042;51.090;-115.340;2023-02-20T15:59:49;2.70;;;0.80;;
74538;SDS011;66042;51.090;-115.340;2023-02-20T16:02:19;3.00;;;0.60;;
74538;SDS011;66042;51.090;-115.340;2023-02-20T16:04:49;3.90;;;1.00;;
74538;SDS011;66042;51.090;-115.340;2023-02-20T16:07:18;6.20;;;1.40;;
74538;SDS011;66042;51.090;-115.340;2023-02-20T16:09:47;3.60;;;1.10;;
74538;SDS011;66042;51.090;-115.340;2023-02-20T16:12:23;3.50;;;1.10;;
74538;SDS011;66042;51.090;-115.340;2023-02-20T16:14:54;7.00;;;2.50;;
74538;SDS011;66042;51.090;-115.340;2023-02-20T16:17:25;8.10;;;2.30;;
74538;SDS011;66042;51.090;-115.340;2023-02-20T16:19:54;6.80;;;1.80;;
74538;SDS011;66042;51.090;-115.340;2023-02-20T16:22:22;7.30;;;2.00;;
74538;SDS011;66042;51.090;-115.340;2023-02-20T16:24:49;7.40;;;2.10;;
74538;SDS011;66042;51.090;-115.340;2023-02-20T16:27:26;7.10;;;2.50;;
74538;SDS011;66042;51.090;-115.340;2023-02-20T16:29:56;9.00;;;2.50;;
74538;SDS011;66042;51.090;-115.340;2023-02-20T16:32:27;10.00;;;2.80;;
74538;SDS011;66042;51.090;-115.340;2023-02-20T16:34:58;13.00;;;4.10;;
74538;SDS011;66042;51.090;-115.340;2023-02-20T16:37:26;13.30;;;4.90;;
74538;SDS011;66042;51.090;-115.340;2023-02-20T16:39:54;11.80;;;4.60;;
74538;SDS011;66042;51.090;-115.340;2023-02-20T16:44:58;13.40;;;4.70;;